createdAt,value
2023-04-17T00:02:01.798Z,93.50
2023-04-17T00:04:11.419Z,93.30
2023-04-17T00:06:19.163Z,93.70
2023-04-17T00:08:27.122Z,93.90
2023-04-17T00:10:32.443Z,94.00
2023-04-17T00:12:38.558Z,93.90
2023-04-17T00:14:43.854Z,94.10
2023-04-17T00:16:49.037Z,94.20
2023-04-17T00:18:54.403Z,94.10
2023-04-17T00:20:59.402Z,94.20
2023-04-17T00:23:04.808Z,94.40
2023-04-17T00:25:15.152Z,94.20
2023-04-17T00:27:20.570Z,94.40
2023-04-17T00:29:25.925Z,94.50
2023-04-17T00:31:31.036Z,94.40
2023-04-17T00:33:36.306Z,94.50
2023-04-17T00:35:41.960Z,94.40
2023-04-17T00:37:47.471Z,94.30
2023-04-17T00:39:52.557Z,94.40
2023-04-17T00:42:00.133Z,94.50
2023-04-17T00:44:05.413Z,94.60
2023-04-17T00:46:13.165Z,94.70
2023-04-17T00:48:19.517Z,95.00
2023-04-17T00:50:26.253Z,94.80
2023-04-17T00:52:32.842Z,94.70
2023-04-17T00:54:38.829Z,94.70
2023-04-17T00:56:44.811Z,94.70
2023-04-17T00:58:53.116Z,95.00
2023-04-17T01:00:58.279Z,95.10
2023-04-17T01:03:03.523Z,95.20
2023-04-17T01:05:09.925Z,95.20
2023-04-17T01:07:15.614Z,95.30
2023-04-17T01:09:21.405Z,95.40
2023-04-17T01:11:26.461Z,95.30
2023-04-17T01:13:31.451Z,95.40
2023-04-17T01:15:39.486Z,95.50
2023-04-17T01:17:44.932Z,95.50
2023-04-17T01:19:52.021Z,95.60
2023-04-17T01:21:57.790Z,95.50
2023-04-17T01:24:08.047Z,95.50
2023-04-17T01:26:14.418Z,95.50
2023-04-17T01:28:19.427Z,95.50
2023-04-17T01:30:24.954Z,95.50
2023-04-17T01:32:57.863Z,95.50
2023-04-17T01:35:03.017Z,95.50
2023-04-17T01:37:08.208Z,95.50
2023-04-17T01:39:15.870Z,95.60
2023-04-17T01:41:21.578Z,95.70
2023-04-17T01:43:26.983Z,95.60
2023-04-17T01:45:32.258Z,95.60
2023-04-17T01:47:37.451Z,95.50
2023-04-17T01:49:42.575Z,95.60
2023-04-17T01:51:47.615Z,95.80
2023-04-17T01:53:52.847Z,95.60
2023-04-17T01:56:02.017Z,95.70
2023-04-17T01:58:07.990Z,95.60
2023-04-17T02:00:15.324Z,95.70
2023-04-17T02:02:23.341Z,95.70
2023-04-17T02:04:28.640Z,95.70
2023-04-17T02:06:34.031Z,95.70
2023-04-17T02:08:39.163Z,95.80
2023-04-17T02:10:44.575Z,96.00
2023-04-17T02:12:52.354Z,95.80
2023-04-17T02:15:01.214Z,95.80
2023-04-17T02:17:06.709Z,95.80
2023-04-17T02:19:11.841Z,95.80
2023-04-17T02:21:17.395Z,95.70
2023-04-17T02:23:22.601Z,95.70
2023-04-17T02:25:28.164Z,95.60
2023-04-17T02:27:33.176Z,95.80
2023-04-17T02:29:41.721Z,95.60
2023-04-17T02:31:47.295Z,95.60
2023-04-17T02:33:52.432Z,95.60
2023-04-17T02:35:57.926Z,95.60
2023-04-17T02:38:10.706Z,95.60
2023-04-17T02:40:18.062Z,95.50
2023-04-17T02:42:23.137Z,95.50
2023-04-17T02:44:28.407Z,95.30
2023-04-17T02:46:36.604Z,95.20
2023-04-17T02:48:41.979Z,95.20
2023-04-17T02:50:47.518Z,95.20
2023-04-17T02:52:56.229Z,95.10
2023-04-17T02:55:01.711Z,95.10
2023-04-17T02:57:08.104Z,95.10
2023-04-17T02:59:13.999Z,95.00
2023-04-17T03:01:19.529Z,94.90
2023-04-17T03:03:28.067Z,95.00
2023-04-17T03:05:33.551Z,94.90
2023-04-17T03:07:39.194Z,94.60
2023-04-17T03:09:45.856Z,94.70
2023-04-17T03:11:52.233Z,94.60
2023-04-17T03:13:57.254Z,94.60
2023-04-17T03:16:02.547Z,94.70
2023-04-17T03:18:08.230Z,94.70
2023-04-17T03:20:16.200Z,94.70
2023-04-17T03:22:21.396Z,94.60
2023-04-17T03:24:27.147Z,94.70
2023-04-17T03:26:32.683Z,94.60
2023-04-17T03:28:42.994Z,94.60
2023-04-17T03:30:48.031Z,94.50
2023-04-17T03:32:53.129Z,94.60
2023-04-17T03:34:58.213Z,94.50
2023-04-17T03:37:05.817Z,94.60
2023-04-17T03:39:11.371Z,94.50
2023-04-17T03:41:16.748Z,94.50
2023-04-17T03:43:23.008Z,94.60
2023-04-17T03:45:28.051Z,94.60
2023-04-17T03:47:33.568Z,94.50
2023-04-17T03:49:38.699Z,94.50
2023-04-17T03:51:45.467Z,94.40
2023-04-17T03:53:58.370Z,94.40
2023-04-17T03:56:03.768Z,94.20
2023-04-17T03:58:14.487Z,94.20
2023-04-17T04:00:21.939Z,94.10
2023-04-17T04:02:31.455Z,94.20
2023-04-17T04:04:36.890Z,94.00
2023-04-17T04:06:49.782Z,94.10
2023-04-17T04:09:00.623Z,94.20
2023-04-17T04:11:06.391Z,94.20
2023-04-17T04:13:17.009Z,93.70
2023-04-17T04:15:28.049Z,93.90
2023-04-17T04:17:37.768Z,93.80
2023-04-17T04:19:43.931Z,93.70
2023-04-17T04:21:49.855Z,93.70
2023-04-17T04:23:56.672Z,93.80
2023-04-17T04:26:04.660Z,94.10
2023-04-17T04:28:15.239Z,94.10
2023-04-17T04:30:20.552Z,94.00
2023-04-17T04:32:28.681Z,94.10
2023-04-17T04:34:36.545Z,94.00
2023-04-17T04:36:50.455Z,94.10
2023-04-17T04:39:08.704Z,94.10
2023-04-17T04:41:17.774Z,94.40
2023-04-17T04:43:23.024Z,94.10
2023-04-17T04:45:32.032Z,94.20
2023-04-17T04:47:39.689Z,94.30
2023-04-17T04:49:45.695Z,94.10
2023-04-17T04:51:52.276Z,93.90
2023-04-17T04:53:59.170Z,94.20
2023-04-17T04:56:04.315Z,94.10
2023-04-17T04:58:13.419Z,94.00
2023-04-17T05:00:19.546Z,93.90
2023-04-17T05:02:27.938Z,93.90
2023-04-17T05:04:33.491Z,94.00
2023-04-17T05:06:39.613Z,94.10
2023-04-17T05:08:46.584Z,93.80
2023-04-17T05:10:53.431Z,93.80
2023-04-17T05:12:58.485Z,93.60
2023-04-17T05:15:07.339Z,93.50
2023-04-17T05:17:12.421Z,93.00
2023-04-17T05:19:17.736Z,93.20
2023-04-17T05:21:31.183Z,92.90
2023-04-17T05:23:37.019Z,92.90
2023-04-17T05:25:44.118Z,92.10
2023-04-17T05:27:49.214Z,92.50
2023-04-17T05:29:55.422Z,92.30
2023-04-17T05:32:03.319Z,92.20
2023-04-17T05:34:41.401Z,91.90
2023-04-17T05:36:48.160Z,91.70
2023-04-17T05:38:53.562Z,91.90
2023-04-17T05:40:58.863Z,92.20
2023-04-17T05:43:10.608Z,91.50
2023-04-17T05:45:18.407Z,91.30
2023-04-17T05:47:26.158Z,91.00
2023-04-17T05:49:31.830Z,91.20
2023-04-17T05:51:36.915Z,90.50
2023-04-17T05:53:44.808Z,90.50
2023-04-17T05:55:49.932Z,90.90
2023-04-17T05:57:58.065Z,90.50
2023-04-17T06:00:09.357Z,90.50
2023-04-17T06:02:19.854Z,90.00
2023-04-17T06:04:29.605Z,89.60
2023-04-17T06:06:34.782Z,90.50
2023-04-17T06:08:39.961Z,90.10
2023-04-17T06:10:45.926Z,89.10
2023-04-17T06:12:51.068Z,89.50
2023-04-17T06:14:56.518Z,88.00
2023-04-17T06:17:02.335Z,88.50
2023-04-17T06:19:07.406Z,87.90
2023-04-17T06:21:15.180Z,85.90
2023-04-17T06:23:20.528Z,86.80
2023-04-17T06:25:27.774Z,86.20
2023-04-17T06:27:33.894Z,84.60
2023-04-17T06:29:41.786Z,85.60
2023-04-17T06:31:47.826Z,84.80
2023-04-17T06:33:56.439Z,84.00
2023-04-17T06:36:07.625Z,83.30
2023-04-17T06:38:24.368Z,83.00
2023-04-17T06:40:29.976Z,81.80
2023-04-17T06:42:35.906Z,80.50
2023-04-17T06:44:41.488Z,82.40
2023-04-17T06:46:54.703Z,81.60
2023-04-17T06:49:00.680Z,81.40
2023-04-17T06:51:07.353Z,80.80
2023-04-17T06:53:12.766Z,81.30
2023-04-17T06:55:20.739Z,80.70
2023-04-17T06:57:25.747Z,82.40
2023-04-17T06:59:30.727Z,80.80
2023-04-17T07:01:38.268Z,80.10
2023-04-17T07:03:44.171Z,81.10
2023-04-17T07:05:49.955Z,79.40
2023-04-17T07:07:55.342Z,78.20
2023-04-17T07:10:00.474Z,79.80
2023-04-17T07:12:08.536Z,79.60
2023-04-17T07:14:13.534Z,77.10
2023-04-17T07:16:19.068Z,79.80
2023-04-17T07:18:25.835Z,80.20
2023-04-17T07:20:31.450Z,78.60
2023-04-17T07:22:37.142Z,79.30
2023-04-17T07:24:42.165Z,78.80
2023-04-17T07:26:48.530Z,78.20
2023-04-17T07:28:56.179Z,79.10
2023-04-17T07:31:01.329Z,76.40
2023-04-17T07:33:06.854Z,78.50
2023-04-17T07:35:12.198Z,79.10
2023-04-17T07:37:18.105Z,78.60
2023-04-17T07:39:23.217Z,77.80
2023-04-17T07:41:28.577Z,77.30
2023-04-17T07:43:33.887Z,79.00
2023-04-17T07:45:42.035Z,77.30
2023-04-17T07:47:47.214Z,79.20
2023-04-17T07:49:52.269Z,78.60
2023-04-17T07:51:57.700Z,78.80
2023-04-17T07:54:03.760Z,77.90
2023-04-17T07:56:09.578Z,77.80
2023-04-17T08:00:22.316Z,78.40
2023-04-17T08:02:30.096Z,79.70
2023-04-17T08:04:35.865Z,80.30
2023-04-17T08:06:41.354Z,80.00
2023-04-17T08:08:47.847Z,80.40
2023-04-17T08:10:52.955Z,80.40
2023-04-17T08:12:58.340Z,80.40
2023-04-17T08:15:03.492Z,80.60
2023-04-17T08:17:09.101Z,79.80
2023-04-17T08:19:16.793Z,80.60
2023-04-17T08:21:21.792Z,81.10
2023-04-17T08:23:27.243Z,80.50
2023-04-17T08:25:32.250Z,81.00
2023-04-17T08:27:37.642Z,80.70
2023-04-17T08:29:42.662Z,81.80
2023-04-17T08:31:47.690Z,81.20
2023-04-17T08:33:59.505Z,82.60
2023-04-17T08:36:14.175Z,81.30
2023-04-17T08:38:19.270Z,82.60
2023-04-17T08:40:26.332Z,81.50
2023-04-17T08:42:33.335Z,80.40
2023-04-17T08:44:39.211Z,81.40
2023-04-17T08:46:44.750Z,81.20
2023-04-17T08:48:51.692Z,79.30
2023-04-17T08:50:57.788Z,79.60
2023-04-17T08:53:05.745Z,79.30
2023-04-17T08:55:12.119Z,81.00
2023-04-17T08:57:17.508Z,78.70
2023-04-17T08:59:24.165Z,79.10
2023-04-17T09:01:30.193Z,79.30
2023-04-17T09:03:44.131Z,79.30
2023-04-17T09:05:49.369Z,78.60
2023-04-17T09:08:13.735Z,78.90
2023-04-17T09:10:19.002Z,76.00
2023-04-17T09:12:27.389Z,78.30
2023-04-17T09:14:34.303Z,75.50
2023-04-17T09:16:58.103Z,77.70
2023-04-17T09:19:09.819Z,75.50
2023-04-17T09:21:16.694Z,75.10
2023-04-17T09:23:25.689Z,75.30
2023-04-17T09:25:31.150Z,74.80
2023-04-17T09:27:36.165Z,75.50
2023-04-17T09:30:02.856Z,73.90
2023-04-17T09:32:18.281Z,74.80
2023-04-17T09:34:23.736Z,73.80
2023-04-17T09:36:30.736Z,74.70
2023-04-17T09:38:42.421Z,74.00
2023-04-17T09:40:47.744Z,73.30
2023-04-17T09:43:01.408Z,74.00
2023-04-17T09:45:22.610Z,73.60
2023-04-17T09:47:28.040Z,74.70
2023-04-17T09:49:42.418Z,74.60
2023-04-17T09:51:49.474Z,75.10
2023-04-17T09:53:59.168Z,74.90
2023-04-17T09:56:06.401Z,77.00
2023-04-17T09:58:12.717Z,76.00
2023-04-17T10:00:20.326Z,76.40
2023-04-17T10:02:26.123Z,75.40
2023-04-17T10:04:32.554Z,74.60
2023-04-17T10:06:39.441Z,76.90
2023-04-17T10:08:44.763Z,73.90
2023-04-17T10:10:52.764Z,74.50
2023-04-17T10:13:01.877Z,75.10
2023-04-17T10:15:10.897Z,75.10
2023-04-17T10:17:31.937Z,74.20
2023-04-17T10:19:39.972Z,73.70
2023-04-17T10:21:46.226Z,74.50
2023-04-17T10:23:51.541Z,73.50
2023-04-17T10:26:47.636Z,74.80
2023-04-17T10:28:57.976Z,73.30
2023-04-17T10:31:03.532Z,74.40
2023-04-17T10:33:28.090Z,74.30
2023-04-17T10:35:39.884Z,74.20
2023-04-17T10:38:08.221Z,74.90
2023-04-17T10:40:20.974Z,74.30
2023-04-17T10:42:28.052Z,76.40
2023-04-17T10:44:41.766Z,73.90
2023-04-17T10:46:51.071Z,74.50
2023-04-17T10:48:56.613Z,74.30
2023-04-17T10:51:47.129Z,72.00
2023-04-17T10:53:53.967Z,70.40
2023-04-17T10:56:00.402Z,70.40
2023-04-17T10:58:15.525Z,72.20
2023-04-17T11:00:23.139Z,68.60
2023-04-17T11:02:37.521Z,69.70
2023-04-17T11:04:42.620Z,70.10
2023-04-17T11:06:51.244Z,72.10
2023-04-17T11:08:58.672Z,70.30
2023-04-17T11:11:03.821Z,69.70
2023-04-17T11:13:09.094Z,72.40
2023-04-17T11:15:14.594Z,69.00
2023-04-17T11:17:19.789Z,70.10
2023-04-17T11:19:26.657Z,69.10
2023-04-17T11:21:31.833Z,68.70
2023-04-17T11:23:39.707Z,67.70
2023-04-17T11:25:45.074Z,69.90
2023-04-17T11:27:55.288Z,66.10
2023-04-17T11:30:00.325Z,62.60
2023-04-17T11:32:05.751Z,61.80
2023-04-17T11:34:11.361Z,58.60
2023-04-17T11:36:16.602Z,59.70
2023-04-17T11:38:24.162Z,64.80
2023-04-17T11:40:33.543Z,57.60
2023-04-17T11:42:40.357Z,55.00
2023-04-17T11:44:46.818Z,61.40
2023-04-17T11:46:53.960Z,56.20
2023-04-17T11:48:59.228Z,54.60
2023-04-17T11:51:08.273Z,54.50
2023-04-17T11:53:17.266Z,57.50
2023-04-17T11:55:22.537Z,53.70
2023-04-17T11:57:30.125Z,57.40
2023-04-17T11:59:36.992Z,55.90
2023-04-17T12:01:55.209Z,55.30
2023-04-17T12:04:02.156Z,58.70
2023-04-17T12:06:08.910Z,54.70
2023-04-17T12:08:13.895Z,56.60
2023-04-17T12:10:18.971Z,53.60
2023-04-17T12:12:24.022Z,53.80
2023-04-17T12:14:32.166Z,52.40
2023-04-17T12:16:37.570Z,53.30
2023-04-17T12:18:42.791Z,53.10
2023-04-17T12:20:47.932Z,50.90
2023-04-17T12:22:53.003Z,51.90
2023-04-17T12:24:58.002Z,52.20
2023-04-17T12:27:04.082Z,53.10
2023-04-17T12:29:09.554Z,51.80
2023-04-17T12:31:17.174Z,51.00
2023-04-17T12:33:22.184Z,54.60
2023-04-17T12:35:27.409Z,50.50
2023-04-17T12:37:32.392Z,51.30
2023-04-17T12:39:37.492Z,52.80
2023-04-17T12:41:42.513Z,50.40
2023-04-17T12:43:47.501Z,48.60
2023-04-17T12:45:52.792Z,53.30
2023-04-17T12:48:00.487Z,53.10
2023-04-17T12:50:05.700Z,52.10
2023-04-17T12:52:11.439Z,50.80
2023-04-17T12:54:16.444Z,48.50
2023-04-17T12:56:21.492Z,52.90
2023-04-17T12:58:27.035Z,51.50
2023-04-17T13:00:32.717Z,46.00
2023-04-17T13:02:38.429Z,47.90
2023-04-17T13:04:46.278Z,46.50
2023-04-17T13:06:51.627Z,46.20
2023-04-17T13:08:57.005Z,46.20
2023-04-17T13:11:03.879Z,48.70
2023-04-17T13:13:08.901Z,47.60
2023-04-17T13:15:15.131Z,46.70
2023-04-17T13:17:21.119Z,44.40
2023-04-17T13:19:26.656Z,48.00
2023-04-17T13:21:34.306Z,50.20
2023-04-17T13:23:39.442Z,49.40
2023-04-17T13:25:44.481Z,46.70
2023-04-17T13:27:49.542Z,46.40
2023-04-17T13:29:54.567Z,48.80
2023-04-17T13:31:59.700Z,50.50
2023-04-17T13:34:05.119Z,45.80
2023-04-17T13:36:10.892Z,46.40
2023-04-17T13:38:18.527Z,44.90
2023-04-17T13:40:23.748Z,45.20
2023-04-17T13:42:29.028Z,43.40
2023-04-17T13:44:34.291Z,45.30
2023-04-17T13:46:39.795Z,46.80
2023-04-17T13:48:45.404Z,41.30
2023-04-17T13:50:50.978Z,42.70
2023-04-17T13:52:56.059Z,43.30
2023-04-17T13:55:03.662Z,41.10
2023-04-17T13:57:09.688Z,41.80
2023-04-17T13:59:15.395Z,41.80
2023-04-17T14:01:20.888Z,38.60
2023-04-17T14:03:26.929Z,41.40
2023-04-17T14:05:32.968Z,42.80
2023-04-17T14:07:38.069Z,42.90
2023-04-17T14:09:43.922Z,40.50
2023-04-17T14:11:51.579Z,42.30
2023-04-17T14:13:57.246Z,39.40
2023-04-17T14:16:02.315Z,38.90
2023-04-17T14:18:09.857Z,40.10
2023-04-17T14:20:18.072Z,39.80
2023-04-17T14:22:23.255Z,35.90
2023-04-17T14:24:28.791Z,37.80
2023-04-17T14:26:34.183Z,40.60
2023-04-17T14:28:42.025Z,42.90
2023-04-17T14:30:48.077Z,42.40
2023-04-17T14:32:53.658Z,42.10
2023-04-17T14:34:59.578Z,41.80
2023-04-17T14:37:04.676Z,44.90
2023-04-17T14:39:10.250Z,42.30
2023-04-17T14:41:16.028Z,40.30
2023-04-17T14:43:21.054Z,39.20
2023-04-17T14:45:29.969Z,41.30
2023-04-17T14:47:36.264Z,42.10
2023-04-17T14:49:42.118Z,44.70
2023-04-17T14:51:47.114Z,44.50
2023-04-17T14:53:53.582Z,46.60
2023-04-17T14:55:59.288Z,44.40
2023-04-17T14:58:04.281Z,42.10
2023-04-17T15:00:11.789Z,43.00
2023-04-17T15:02:20.826Z,44.00
2023-04-17T15:04:26.326Z,42.60
2023-04-17T15:06:32.668Z,46.00
2023-04-17T15:08:37.801Z,41.80
2023-04-17T15:10:50.836Z,41.20
2023-04-17T15:13:00.742Z,43.00
2023-04-17T15:15:06.522Z,45.70
2023-04-17T15:17:11.523Z,45.40
2023-04-17T15:19:19.470Z,46.40
2023-04-17T15:21:24.597Z,45.90
2023-04-17T15:23:30.038Z,46.40
2023-04-17T15:25:35.155Z,46.70
2023-04-17T15:27:40.455Z,46.20
2023-04-17T15:29:46.936Z,47.50
2023-04-17T15:31:52.939Z,42.70
2023-04-17T15:33:58.066Z,42.40
2023-04-17T15:36:05.819Z,42.80
2023-04-17T15:38:11.009Z,44.80
2023-04-17T15:40:16.504Z,46.10
2023-04-17T15:42:22.722Z,45.80
2023-04-17T15:44:29.481Z,43.80
2023-04-17T15:46:34.649Z,43.80
2023-04-17T15:48:40.238Z,43.30
2023-04-17T15:50:46.013Z,43.50
2023-04-17T15:52:53.581Z,44.50
2023-04-17T15:54:58.950Z,45.60
2023-04-17T15:57:03.977Z,46.10
2023-04-17T15:59:09.003Z,45.70
2023-04-17T16:01:15.056Z,45.80
2023-04-17T16:03:20.330Z,49.60
2023-04-17T16:05:26.166Z,48.90
2023-04-17T16:07:31.449Z,47.20
2023-04-17T16:09:39.959Z,46.40
2023-04-17T16:11:45.045Z,48.80
2023-04-17T16:13:50.790Z,51.40
2023-04-17T16:15:55.768Z,51.80
2023-04-17T16:18:02.026Z,50.30
2023-04-17T16:20:09.023Z,47.60
2023-04-17T16:22:14.181Z,46.90
2023-04-17T16:24:19.451Z,49.80
2023-04-17T16:26:27.562Z,45.90
2023-04-17T16:28:32.948Z,45.70
2023-04-17T16:30:37.946Z,46.80
2023-04-17T16:32:45.508Z,49.10
2023-04-17T16:34:50.653Z,46.10
2023-04-17T16:36:55.888Z,45.80
2023-04-17T16:39:02.516Z,45.10
2023-04-17T16:41:07.685Z,44.20
2023-04-17T16:43:15.584Z,44.30
2023-04-17T16:45:20.906Z,45.30
2023-04-17T16:47:26.035Z,44.40
2023-04-17T16:49:31.120Z,46.60
2023-04-17T16:51:36.186Z,45.80
2023-04-17T16:53:41.424Z,45.40
2023-04-17T16:55:46.526Z,46.50
2023-04-17T16:57:51.532Z,48.50
2023-04-17T16:59:59.273Z,47.30
2023-04-17T17:02:04.332Z,48.20
2023-04-17T17:04:09.612Z,47.60
2023-04-17T17:06:14.671Z,48.40
2023-04-17T17:08:19.678Z,49.90
2023-04-17T17:10:24.699Z,48.90
2023-04-17T17:12:29.711Z,50.40
2023-04-17T17:14:34.726Z,50.70
2023-04-17T17:16:43.213Z,50.40
2023-04-17T17:18:48.620Z,50.30
2023-04-17T17:20:56.051Z,50.10
2023-04-17T17:23:01.098Z,49.30
2023-04-17T17:25:06.685Z,49.50
2023-04-17T17:27:13.128Z,50.50
2023-04-17T17:29:18.149Z,49.50
2023-04-17T17:31:23.615Z,52.20
2023-04-17T17:33:32.352Z,51.90
2023-04-17T17:35:37.864Z,51.40
2023-04-17T17:37:43.121Z,51.80
2023-04-17T17:39:48.207Z,52.30
2023-04-17T17:41:53.622Z,52.60
2023-04-17T17:43:59.067Z,53.80
2023-04-17T17:46:04.174Z,53.20
2023-04-17T17:48:09.817Z,55.00
2023-04-17T17:50:17.769Z,54.40
2023-04-17T17:52:22.776Z,54.50
2023-04-17T17:54:28.494Z,56.00
2023-04-17T17:56:33.546Z,56.90
2023-04-17T17:58:38.704Z,57.10
2023-04-17T18:00:44.024Z,59.00
2023-04-17T18:02:49.177Z,57.20
2023-04-17T18:04:54.533Z,58.70
2023-04-17T18:07:02.170Z,58.00
2023-04-17T18:09:07.324Z,57.40
2023-04-17T18:11:13.373Z,57.80
2023-04-17T18:13:18.436Z,58.50
2023-04-17T18:15:23.555Z,57.90
2023-04-17T18:17:28.655Z,58.70
2023-04-17T18:19:33.757Z,59.30
2023-04-17T18:21:38.802Z,60.60
2023-04-17T18:23:46.523Z,60.60
2023-04-17T18:26:00.506Z,60.40
2023-04-17T18:28:06.441Z,61.40
2023-04-17T18:30:13.461Z,61.30
2023-04-17T18:32:18.659Z,61.60
2023-04-17T18:34:24.820Z,61.00
2023-04-17T18:36:30.078Z,62.30
2023-04-17T18:38:35.094Z,61.80
2023-04-17T18:40:42.946Z,61.60
2023-04-17T18:42:47.952Z,62.40
2023-04-17T18:44:53.396Z,61.80
2023-04-17T18:46:58.464Z,62.50
2023-04-17T18:49:03.657Z,63.50
2023-04-17T18:51:14.682Z,63.40
2023-04-17T18:53:19.730Z,64.70
2023-04-17T18:55:25.193Z,69.30
2023-04-17T18:57:33.049Z,72.60
2023-04-17T18:59:38.065Z,73.80
2023-04-17T19:01:43.063Z,75.10
2023-04-17T19:03:48.276Z,74.00
2023-04-17T19:05:53.496Z,74.70
2023-04-17T19:07:58.497Z,74.40
2023-04-17T19:10:03.544Z,75.40
2023-04-17T19:12:09.045Z,77.00
2023-04-17T19:14:16.621Z,74.40
2023-04-17T19:16:21.629Z,73.60
2023-04-17T19:18:27.204Z,75.20
2023-04-17T19:20:32.232Z,72.70
2023-04-17T19:22:37.251Z,74.70
2023-04-17T19:24:42.278Z,76.20
2023-04-17T19:26:47.330Z,75.40
2023-04-17T19:28:52.668Z,77.50
2023-04-17T19:31:01.034Z,77.60
2023-04-17T19:33:06.895Z,77.10
2023-04-17T19:35:13.128Z,78.00
2023-04-17T19:37:18.307Z,78.80
2023-04-17T19:39:23.668Z,78.50
2023-04-17T19:41:29.407Z,78.30
2023-04-17T19:43:34.414Z,79.50
2023-04-17T19:45:39.643Z,79.70
2023-04-17T19:47:52.660Z,79.90
2023-04-17T19:49:57.713Z,80.40
2023-04-17T19:52:03.483Z,81.60
2023-04-17T19:54:10.076Z,80.30
2023-04-17T19:56:15.669Z,80.50
2023-04-17T19:58:20.712Z,80.20
2023-04-17T20:00:25.870Z,80.90
2023-04-17T20:02:31.003Z,82.50
2023-04-17T20:04:38.719Z,80.80
2023-04-17T20:06:43.868Z,82.50
2023-04-17T20:08:49.155Z,82.80
2023-04-17T20:10:54.377Z,83.40
2023-04-17T20:12:59.373Z,84.90
2023-04-17T20:15:04.447Z,84.10
2023-04-17T20:17:09.576Z,85.20
2023-04-17T20:19:15.722Z,84.70
2023-04-17T20:21:23.305Z,85.30
2023-04-17T20:23:28.294Z,86.20
2023-04-17T20:25:33.606Z,86.10
2023-04-17T20:27:38.641Z,86.70
2023-04-17T20:29:43.647Z,86.70
2023-04-17T20:31:48.793Z,86.00
2023-04-17T20:33:53.839Z,85.90
2023-04-17T20:35:58.864Z,86.30
2023-04-17T20:38:06.935Z,86.30
2023-04-17T20:40:14.148Z,85.60
2023-04-17T20:42:19.254Z,86.60
2023-04-17T20:44:24.242Z,86.40
2023-04-17T20:46:29.329Z,86.90
2023-04-17T20:48:34.386Z,86.70
2023-04-17T20:50:39.498Z,86.80
2023-04-17T20:52:44.754Z,85.90
2023-04-17T20:54:52.342Z,86.80
2023-04-17T20:56:57.340Z,86.60
2023-04-17T20:59:02.333Z,86.00
2023-04-17T21:01:07.577Z,87.20
2023-04-17T21:03:12.660Z,87.60
2023-04-17T21:05:19.389Z,88.50
2023-04-17T21:07:24.438Z,88.50
2023-04-17T21:09:29.423Z,88.70
2023-04-17T21:11:37.274Z,89.20
2023-04-17T21:13:42.398Z,89.20
2023-04-17T21:15:47.430Z,89.60
2023-04-17T21:17:53.035Z,89.50
2023-04-17T21:19:58.415Z,89.60
2023-04-17T21:22:04.421Z,89.60
2023-04-17T21:24:11.468Z,89.50
2023-04-17T21:26:16.589Z,89.20
2023-04-17T21:28:24.629Z,89.70
2023-04-17T21:30:29.671Z,89.10
2023-04-17T21:32:35.197Z,89.40
2023-04-17T21:34:40.245Z,89.50
2023-04-17T21:36:45.283Z,89.60
2023-04-17T21:38:50.308Z,89.60
2023-04-17T21:40:55.470Z,88.70
2023-04-17T21:43:00.736Z,89.40
2023-04-17T21:45:10.728Z,88.90
2023-04-17T21:47:16.689Z,89.40
2023-04-17T21:49:22.880Z,89.50
2023-04-17T21:51:27.883Z,89.50
2023-04-17T21:53:33.379Z,89.30
2023-04-17T21:55:38.668Z,88.30
2023-04-17T21:57:43.746Z,89.00
2023-04-17T21:59:48.738Z,89.20
2023-04-17T22:01:56.768Z,89.30
2023-04-17T22:04:02.097Z,89.90
2023-04-17T22:06:07.844Z,89.60
2023-04-17T22:08:12.882Z,90.90
2023-04-17T22:10:17.869Z,90.90
2023-04-17T22:12:23.523Z,91.10
2023-04-17T22:14:28.483Z,90.80
2023-04-17T22:16:33.456Z,89.80
2023-04-17T22:18:41.184Z,89.40
2023-04-17T22:20:46.252Z,90.60
2023-04-17T22:22:51.243Z,91.50
2023-04-17T22:24:56.469Z,91.20
2023-04-17T22:27:01.783Z,91.40
2023-04-17T22:29:06.827Z,92.00
2023-04-17T22:31:12.816Z,92.00
2023-04-17T22:33:17.815Z,91.90
2023-04-17T22:35:25.674Z,91.90
2023-04-17T22:37:30.884Z,91.80
2023-04-17T22:39:35.867Z,92.10
2023-04-17T22:41:40.817Z,92.20
2023-04-17T22:43:46.218Z,92.00
2023-04-17T22:45:51.264Z,92.40
2023-04-17T22:47:56.449Z,92.30
2023-04-17T22:50:02.591Z,91.80
2023-04-17T22:52:10.787Z,91.70
2023-04-17T22:54:22.768Z,92.60
2023-04-17T22:56:28.456Z,92.10
2023-04-17T22:58:36.558Z,91.80
2023-04-17T23:00:41.518Z,92.10
2023-04-17T23:02:47.031Z,92.30
2023-04-17T23:04:52.142Z,92.00
2023-04-17T23:06:57.141Z,92.60
2023-04-17T23:09:05.230Z,92.50
2023-04-17T23:11:10.456Z,92.70
2023-04-17T23:13:15.949Z,92.40
2023-04-17T23:15:21.239Z,92.20
2023-04-17T23:17:26.579Z,91.90
2023-04-17T23:19:31.613Z,91.20
2023-04-17T23:21:36.637Z,91.60
2023-04-17T23:23:42.116Z,92.20
2023-04-17T23:25:49.673Z,91.70
2023-04-17T23:27:55.177Z,92.10
2023-04-17T23:30:01.294Z,92.50
2023-04-17T23:32:07.208Z,92.20
2023-04-17T23:34:12.449Z,92.10
2023-04-17T23:36:17.821Z,92.10
2023-04-17T23:38:23.368Z,91.40
2023-04-17T23:40:28.626Z,91.90
2023-04-17T23:42:36.223Z,91.70
2023-04-17T23:44:41.237Z,92.00
2023-04-17T23:46:46.520Z,91.90
2023-04-17T23:48:52.427Z,91.60
2023-04-17T23:50:57.595Z,92.10
2023-04-17T23:53:02.792Z,92.40
2023-04-17T23:55:09.491Z,92.20
2023-04-17T23:57:14.795Z,91.90
2023-04-17T23:59:22.749Z,91.80
